createdAt,value
2023-03-06T00:01:00.874Z,70.65
2023-03-06T00:03:29.387Z,70.10
2023-03-06T00:05:58.358Z,69.40
2023-03-06T00:08:27.959Z,69.18
2023-03-06T00:10:56.987Z,69.20
2023-03-06T00:13:26.659Z,68.95
2023-03-06T00:15:58.214Z,69.04
2023-03-06T00:18:27.853Z,69.17
2023-03-06T00:20:56.467Z,69.25
2023-03-06T00:23:25.445Z,69.50
2023-03-06T00:25:54.053Z,69.43
2023-03-06T00:28:22.566Z,69.49
2023-03-06T00:30:51.058Z,69.59
2023-03-06T00:33:19.418Z,69.70
2023-03-06T00:35:48.592Z,69.76
2023-03-06T00:38:17.268Z,69.77
2023-03-06T00:40:47.211Z,70.07
2023-03-06T00:43:17.423Z,70.14
2023-03-06T00:45:45.815Z,70.29
2023-03-06T00:48:14.880Z,70.41
2023-03-06T00:50:43.461Z,70.42
2023-03-06T00:53:11.988Z,70.58
2023-03-06T00:55:44.149Z,70.67
2023-03-06T00:58:13.265Z,70.68
2023-03-06T01:00:42.420Z,70.74
2023-03-06T01:03:12.308Z,70.90
2023-03-06T01:05:40.652Z,71.08
2023-03-06T01:08:10.129Z,71.18
2023-03-06T01:10:40.689Z,71.52
2023-03-06T01:13:09.640Z,71.70
2023-03-06T01:15:38.558Z,71.83
2023-03-06T01:18:07.103Z,71.90
2023-03-06T01:20:35.515Z,72.02
2023-03-06T01:23:04.024Z,72.02
2023-03-06T01:25:32.661Z,71.80
2023-03-06T01:28:01.897Z,71.33
2023-03-06T01:30:30.575Z,70.98
2023-03-06T01:32:59.926Z,70.49
2023-03-06T01:35:28.462Z,70.46
2023-03-06T01:37:57.428Z,70.67
2023-03-06T01:40:26.539Z,70.78
2023-03-06T01:42:54.683Z,70.76
2023-03-06T01:45:23.474Z,71.00
2023-03-06T01:47:52.692Z,71.33
2023-03-06T01:50:20.751Z,71.27
2023-03-06T01:52:54.324Z,71.35
2023-03-06T01:55:25.738Z,71.12
2023-03-06T01:57:59.520Z,70.88
2023-03-06T02:00:29.458Z,70.58
2023-03-06T02:03:06.597Z,70.59
2023-03-06T02:05:35.885Z,70.65
2023-03-06T02:08:04.616Z,70.66
2023-03-06T02:10:33.558Z,70.39
2023-03-06T02:13:02.645Z,70.26
2023-03-06T02:15:31.112Z,69.85
2023-03-06T02:18:00.393Z,69.76
2023-03-06T02:20:31.415Z,69.77
2023-03-06T02:23:09.102Z,69.62
2023-03-06T02:25:40.645Z,69.57
2023-03-06T02:28:10.004Z,69.22
2023-03-06T02:30:38.465Z,69.25
2023-03-06T02:33:07.040Z,68.67
2023-03-06T02:35:36.939Z,68.47
2023-03-06T02:38:10.682Z,68.29
2023-03-06T02:40:39.499Z,68.33
2023-03-06T02:43:08.847Z,68.39
2023-03-06T02:45:49.298Z,68.61
2023-03-06T02:48:19.453Z,68.76
2023-03-06T02:50:48.290Z,68.74
2023-03-06T02:53:18.140Z,68.63
2023-03-06T02:55:47.291Z,68.75
2023-03-06T02:58:16.145Z,68.78
2023-03-06T03:00:45.879Z,68.81
2023-03-06T03:03:14.080Z,68.74
2023-03-06T03:05:42.594Z,68.80
2023-03-06T03:08:12.243Z,68.71
2023-03-06T03:10:40.790Z,68.75
2023-03-06T03:13:09.567Z,68.52
2023-03-06T03:15:38.774Z,67.96
2023-03-06T03:18:07.446Z,67.59
2023-03-06T03:20:36.517Z,67.44
2023-03-06T03:23:06.134Z,67.69
2023-03-06T03:25:34.976Z,67.75
2023-03-06T03:28:05.130Z,67.15
2023-03-06T03:30:34.433Z,67.26
2023-03-06T03:33:03.852Z,67.30
2023-03-06T03:35:33.138Z,67.56
2023-03-06T03:38:02.662Z,68.18
2023-03-06T03:40:31.045Z,68.55
2023-03-06T03:42:59.754Z,68.46
2023-03-06T03:45:28.945Z,68.65
2023-03-06T03:47:57.131Z,68.57
2023-03-06T03:50:26.277Z,68.22
2023-03-06T03:52:54.290Z,67.85
2023-03-06T03:55:23.704Z,68.66
2023-03-06T03:57:52.331Z,69.22
2023-03-06T04:00:21.877Z,69.13
2023-03-06T04:02:50.339Z,68.82
2023-03-06T04:05:19.675Z,68.94
2023-03-06T04:07:49.353Z,69.04
2023-03-06T04:10:17.473Z,68.94
2023-03-06T04:12:46.399Z,68.97
2023-03-06T04:15:16.276Z,68.34
2023-03-06T04:17:45.188Z,68.32
2023-03-06T04:20:13.752Z,68.77
2023-03-06T04:22:42.099Z,68.90
2023-03-06T04:25:10.606Z,68.93
2023-03-06T04:27:38.668Z,69.15
2023-03-06T04:30:08.399Z,69.49
2023-03-06T04:32:36.987Z,69.31
2023-03-06T04:35:05.829Z,69.01
2023-03-06T04:37:34.572Z,69.16
2023-03-06T04:40:03.591Z,69.07
2023-03-06T04:42:31.881Z,68.91
2023-03-06T04:45:00.374Z,69.30
2023-03-06T04:47:29.195Z,69.07
2023-03-06T04:49:58.259Z,68.97
2023-03-06T04:52:26.410Z,69.00
2023-03-06T04:54:54.416Z,69.54
2023-03-06T04:57:23.823Z,69.59
2023-03-06T04:59:53.105Z,69.34
2023-03-06T05:02:21.652Z,68.64
2023-03-06T05:04:51.772Z,68.51
2023-03-06T05:07:21.318Z,68.18
2023-03-06T05:09:50.065Z,68.44
2023-03-06T05:12:19.797Z,68.85
2023-03-06T05:14:49.617Z,69.18
2023-03-06T05:17:18.033Z,69.28
2023-03-06T05:19:47.206Z,69.16
2023-03-06T05:22:15.414Z,68.99
2023-03-06T05:24:44.429Z,68.60
2023-03-06T05:27:15.192Z,68.19
2023-03-06T05:29:45.680Z,68.09
2023-03-06T05:32:15.850Z,67.59
2023-03-06T05:34:44.315Z,67.48
2023-03-06T05:37:12.468Z,67.20
2023-03-06T05:39:41.467Z,67.04
2023-03-06T05:42:11.176Z,67.02
2023-03-06T05:44:41.579Z,66.80
2023-03-06T05:47:09.914Z,67.14
2023-03-06T05:49:40.531Z,67.22
2023-03-06T05:52:09.635Z,67.24
2023-03-06T05:54:38.830Z,66.61
2023-03-06T05:57:07.625Z,66.63
2023-03-06T05:59:38.183Z,66.66
2023-03-06T06:02:06.294Z,66.96
2023-03-06T06:04:34.817Z,67.09
2023-03-06T06:07:03.446Z,67.18
2023-03-06T06:09:31.403Z,67.11
2023-03-06T06:12:01.740Z,67.05
2023-03-06T06:14:30.533Z,67.57
2023-03-06T06:17:00.033Z,67.75
2023-03-06T06:19:29.529Z,67.77
2023-03-06T06:21:58.973Z,67.95
2023-03-06T06:24:27.888Z,68.39
2023-03-06T06:26:57.108Z,68.34
2023-03-06T06:29:27.019Z,68.71
2023-03-06T06:31:57.161Z,68.65
2023-03-06T06:34:25.940Z,68.56
2023-03-06T06:36:54.667Z,67.82
2023-03-06T06:39:23.943Z,67.54
2023-03-06T06:42:09.613Z,67.26
2023-03-06T06:44:41.840Z,67.40
2023-03-06T06:47:26.492Z,66.98
2023-03-06T06:49:56.305Z,66.28
2023-03-06T06:52:25.151Z,65.84
2023-03-06T06:54:53.199Z,65.78
2023-03-06T06:57:21.297Z,65.71
2023-03-06T06:59:52.443Z,66.45
2023-03-06T07:02:22.843Z,66.00
2023-03-06T07:05:03.071Z,64.64
2023-03-06T07:07:36.291Z,61.93
2023-03-06T07:10:05.515Z,60.28
2023-03-06T07:12:33.991Z,57.81
2023-03-06T07:15:05.534Z,54.11
2023-03-06T07:17:34.077Z,50.17
2023-03-06T07:20:03.080Z,46.66
2023-03-06T07:22:38.711Z,43.47
2023-03-06T07:25:18.508Z,40.30
2023-03-06T07:27:53.339Z,37.76
2023-03-06T07:30:23.986Z,35.51
2023-03-06T07:32:54.561Z,32.33
2023-03-06T07:35:23.616Z,28.79
2023-03-06T07:37:52.433Z,27.30
2023-03-06T07:40:21.845Z,27.15
2023-03-06T07:42:49.936Z,25.68
2023-03-06T07:45:18.710Z,25.18
2023-03-06T07:47:50.226Z,24.22
2023-03-06T07:50:20.473Z,24.04
2023-03-06T07:52:49.783Z,24.32
2023-03-06T07:55:18.098Z,23.92
2023-03-06T07:57:46.086Z,24.44
2023-03-06T08:00:15.423Z,23.92
2023-03-06T08:02:44.175Z,24.03
2023-03-06T08:05:14.658Z,22.92
2023-03-06T08:07:44.054Z,21.97
2023-03-06T08:10:13.621Z,22.07
2023-03-06T08:12:43.125Z,21.57
2023-03-06T08:15:14.432Z,20.52
2023-03-06T08:17:43.443Z,20.16
2023-03-06T08:20:11.978Z,19.08
2023-03-06T08:22:40.955Z,18.87
2023-03-06T08:25:09.446Z,19.12
2023-03-06T08:27:37.889Z,19.75
2023-03-06T08:30:07.160Z,19.41
2023-03-06T08:32:36.233Z,19.55
2023-03-06T08:35:05.031Z,19.67
2023-03-06T08:37:34.152Z,19.47
2023-03-06T08:40:03.375Z,19.29
2023-03-06T08:42:32.162Z,19.95
2023-03-06T08:45:00.656Z,20.20
2023-03-06T08:47:28.767Z,20.13
2023-03-06T08:49:58.826Z,20.01
2023-03-06T08:52:28.867Z,19.36
2023-03-06T08:54:59.841Z,18.92
2023-03-06T08:57:28.176Z,18.43
2023-03-06T08:59:56.710Z,18.35
2023-03-06T09:02:24.914Z,17.94
2023-03-06T09:04:53.685Z,17.72
2023-03-06T09:07:21.918Z,17.39
2023-03-06T09:09:49.864Z,17.38
2023-03-06T09:12:17.881Z,17.27
2023-03-06T09:14:46.182Z,17.29
2023-03-06T09:17:14.087Z,17.43
2023-03-06T09:19:42.255Z,18.32
2023-03-06T09:22:10.901Z,18.62
2023-03-06T09:24:38.857Z,18.79
2023-03-06T09:27:07.239Z,19.05
2023-03-06T09:29:35.301Z,19.44
2023-03-06T09:32:03.995Z,19.82
2023-03-06T09:34:32.023Z,20.58
2023-03-06T09:37:02.418Z,20.73
2023-03-06T09:39:30.913Z,21.43
2023-03-06T09:41:59.268Z,21.65
2023-03-06T09:44:32.637Z,21.48
2023-03-06T09:47:29.884Z,21.00
2023-03-06T09:50:11.477Z,20.77
2023-03-06T09:52:55.360Z,20.12
2023-03-06T09:55:29.045Z,19.56
2023-03-06T09:58:03.834Z,19.01
2023-03-06T10:00:41.366Z,18.31
2023-03-06T10:03:16.060Z,17.62
2023-03-06T10:05:50.099Z,17.22
2023-03-06T10:08:28.793Z,16.53
2023-03-06T10:11:01.315Z,16.33
2023-03-06T10:13:43.644Z,15.96
2023-03-06T10:16:12.985Z,15.73
2023-03-06T10:18:41.032Z,16.00
2023-03-06T10:21:41.703Z,16.49
2023-03-06T10:24:23.546Z,16.97
2023-03-06T10:27:12.295Z,17.61
2023-03-06T10:30:02.015Z,18.29
2023-03-06T10:32:46.243Z,18.58
2023-03-06T10:35:20.163Z,18.13
2023-03-06T10:37:48.607Z,17.89
2023-03-06T10:40:19.429Z,17.78
2023-03-06T10:42:49.547Z,17.64
2023-03-06T10:45:21.076Z,18.04
2023-03-06T10:47:49.579Z,17.74
2023-03-06T10:50:17.542Z,17.09
2023-03-06T10:52:46.008Z,16.42
2023-03-06T10:55:25.477Z,15.86
2023-03-06T10:57:53.625Z,15.73
2023-03-06T11:00:29.975Z,15.26
2023-03-06T11:03:11.023Z,15.38
2023-03-06T11:05:39.568Z,15.36
2023-03-06T11:08:19.874Z,15.09
2023-03-06T11:11:02.643Z,15.56
2023-03-06T11:13:33.932Z,15.38
2023-03-06T11:16:04.951Z,15.34
2023-03-06T11:18:36.778Z,15.62
2023-03-06T11:21:06.729Z,15.76
2023-03-06T11:23:41.646Z,15.35
2023-03-06T11:26:24.574Z,15.33
2023-03-06T11:29:11.956Z,15.33
2023-03-06T11:31:47.137Z,15.27
2023-03-06T11:34:25.810Z,15.19
2023-03-06T11:37:02.517Z,15.10
2023-03-06T11:39:51.814Z,15.05
2023-03-06T11:42:32.728Z,15.35
2023-03-06T11:45:02.879Z,15.98
2023-03-06T11:47:46.379Z,16.86
2023-03-06T11:50:20.553Z,18.03
2023-03-06T11:52:53.660Z,18.74
2023-03-06T11:55:28.595Z,19.27
2023-03-06T11:58:04.619Z,19.50
2023-03-06T12:00:38.937Z,19.26
2023-03-06T12:03:25.842Z,19.22
2023-03-06T12:06:06.110Z,19.28
2023-03-06T12:12:03.672Z,19.93
2023-03-06T12:14:34.585Z,20.72
2023-03-06T12:17:12.087Z,20.90
2023-03-06T12:19:44.021Z,21.31
2023-03-06T12:22:31.952Z,21.66
2023-03-06T12:25:27.278Z,21.81
2023-03-06T12:28:02.605Z,22.10
2023-03-06T12:30:42.779Z,22.44
2023-03-06T12:33:10.876Z,23.05
2023-03-06T12:35:47.961Z,23.29
2023-03-06T12:38:35.125Z,23.75
2023-03-06T12:41:22.289Z,24.10
2023-03-06T12:43:50.539Z,24.45
2023-03-06T12:46:24.553Z,24.93
2023-03-06T12:49:02.010Z,24.92
2023-03-06T12:51:31.649Z,24.97
2023-03-06T12:54:02.499Z,24.91
2023-03-06T12:56:31.352Z,24.97
2023-03-06T12:59:00.237Z,24.83
2023-03-06T13:01:37.918Z,25.02
2023-03-06T13:04:27.764Z,25.30
2023-03-06T13:07:02.127Z,25.31
2023-03-06T13:09:40.575Z,25.38
2023-03-06T13:12:36.361Z,25.49
2023-03-06T13:15:24.526Z,25.75
2023-03-06T13:17:53.739Z,25.93
2023-03-06T13:20:40.686Z,25.95
2023-03-06T13:23:28.174Z,26.01
2023-03-06T13:25:57.315Z,25.87
2023-03-06T13:28:44.097Z,25.76
2023-03-06T13:31:26.630Z,25.74
2023-03-06T13:34:03.222Z,25.88
2023-03-06T13:36:33.347Z,25.82
2023-03-06T13:39:01.404Z,26.15
2023-03-06T13:41:35.691Z,26.33
2023-03-06T13:44:25.613Z,26.52
2023-03-06T13:47:06.124Z,26.67
2023-03-06T13:49:35.298Z,26.78
2023-03-06T13:52:07.082Z,27.04
2023-03-06T13:54:39.546Z,26.98
2023-03-06T13:57:23.301Z,27.23
2023-03-06T14:00:03.100Z,27.27
2023-03-06T14:02:53.515Z,27.30
2023-03-06T14:05:24.017Z,27.68
2023-03-06T14:08:10.401Z,27.91
2023-03-06T14:10:39.860Z,28.01
2023-03-06T14:13:19.793Z,27.96
2023-03-06T14:15:52.970Z,27.81
2023-03-06T14:18:23.724Z,28.00
2023-03-06T14:21:07.054Z,28.14
2023-03-06T14:23:40.196Z,28.09
2023-03-06T14:26:12.580Z,28.30
2023-03-06T14:28:42.075Z,28.30
2023-03-06T14:31:19.475Z,27.78
2023-03-06T14:33:51.183Z,27.80
2023-03-06T14:36:21.093Z,28.24
2023-03-06T14:38:51.830Z,28.26
2023-03-06T14:41:31.121Z,28.34
2023-03-06T14:44:17.516Z,28.42
2023-03-06T14:46:47.543Z,28.12
2023-03-06T14:49:16.301Z,28.15
2023-03-06T14:51:45.894Z,28.31
2023-03-06T14:54:17.250Z,28.16
2023-03-06T14:56:47.758Z,28.14
2023-03-06T14:59:21.720Z,28.13
2023-03-06T15:01:50.775Z,28.18
2023-03-06T15:04:40.591Z,28.35
2023-03-06T15:07:21.393Z,28.24
2023-03-06T15:09:51.669Z,28.32
2023-03-06T15:12:20.080Z,28.45
2023-03-06T15:15:18.584Z,28.71
2023-03-06T15:17:48.117Z,28.87
2023-03-06T15:20:35.551Z,28.39
2023-03-06T15:23:13.530Z,28.31
2023-03-06T15:25:49.662Z,28.45
2023-03-06T15:28:35.674Z,28.34
2023-03-06T15:31:21.204Z,28.43
2023-03-06T15:34:11.811Z,28.26
2023-03-06T15:36:47.581Z,28.30
2023-03-06T15:39:51.219Z,28.13
2023-03-06T15:42:25.935Z,27.77
2023-03-06T15:44:55.290Z,27.28
2023-03-06T15:47:24.316Z,27.65
2023-03-06T15:49:53.830Z,27.65
2023-03-06T15:52:23.569Z,27.67
2023-03-06T15:54:52.552Z,27.67
2023-03-06T15:57:26.291Z,27.56
2023-03-06T15:59:55.565Z,27.63
2023-03-06T16:02:24.760Z,27.67
2023-03-06T16:04:53.612Z,28.07
2023-03-06T16:07:21.726Z,28.26
2023-03-06T16:09:50.038Z,28.34
2023-03-06T16:12:20.154Z,28.65
2023-03-06T16:14:48.810Z,29.18
2023-03-06T16:17:17.991Z,29.26
2023-03-06T16:19:46.554Z,29.44
2023-03-06T16:22:17.058Z,29.41
2023-03-06T16:24:44.931Z,29.41
2023-03-06T16:27:18.318Z,29.42
2023-03-06T16:29:46.476Z,29.33
2023-03-06T16:32:14.504Z,29.49
2023-03-06T16:34:43.046Z,29.53
2023-03-06T16:37:12.818Z,29.77
2023-03-06T16:39:42.824Z,30.09
2023-03-06T16:42:11.527Z,30.02
2023-03-06T16:44:39.683Z,30.31
2023-03-06T16:47:10.880Z,30.87
2023-03-06T16:49:40.014Z,30.73
2023-03-06T16:52:11.507Z,30.89
2023-03-06T16:54:44.569Z,30.79
2023-03-06T16:57:15.828Z,30.55
2023-03-06T16:59:43.846Z,30.27
2023-03-06T17:02:12.481Z,30.39
2023-03-06T17:04:40.474Z,30.24
2023-03-06T17:07:08.898Z,30.20
2023-03-06T17:09:37.476Z,30.38
2023-03-06T17:12:06.155Z,30.76
2023-03-06T17:14:34.327Z,31.24
2023-03-06T17:17:02.375Z,31.41
2023-03-06T17:19:30.678Z,31.69
2023-03-06T17:21:58.702Z,31.76
2023-03-06T17:24:26.896Z,32.06
2023-03-06T17:26:55.226Z,32.01
2023-03-06T17:29:23.561Z,31.99
2023-03-06T17:31:51.390Z,32.43
2023-03-06T17:34:19.540Z,32.50
2023-03-06T17:36:47.431Z,32.68
2023-03-06T17:39:17.494Z,32.70
2023-03-06T17:41:46.548Z,33.08
2023-03-06T17:44:15.865Z,33.59
2023-03-06T17:46:44.200Z,33.82
2023-03-06T17:49:12.179Z,34.19
2023-03-06T17:51:41.239Z,34.34
2023-03-06T17:54:09.162Z,34.31
2023-03-06T17:56:37.529Z,34.39
2023-03-06T17:59:05.562Z,34.80
2023-03-06T18:01:33.628Z,34.87
2023-03-06T18:04:01.926Z,34.90
2023-03-06T18:06:30.935Z,35.30
2023-03-06T18:09:00.800Z,35.34
2023-03-06T18:11:28.943Z,35.24
2023-03-06T18:13:57.068Z,35.79
2023-03-06T18:16:26.359Z,36.01
2023-03-06T18:18:55.528Z,36.07
2023-03-06T18:21:24.070Z,36.19
2023-03-06T18:23:52.328Z,40.30
2023-03-06T18:26:24.912Z,49.01
2023-03-06T18:28:56.274Z,50.28
2023-03-06T18:31:25.922Z,51.33
2023-03-06T18:33:56.977Z,52.94
2023-03-06T18:36:26.165Z,55.31
2023-03-06T18:38:54.752Z,56.56
2023-03-06T18:41:24.225Z,57.84
2023-03-06T18:43:56.589Z,59.47
2023-03-06T18:46:25.374Z,60.07
2023-03-06T18:48:54.943Z,60.60
2023-03-06T18:51:23.007Z,61.92
2023-03-06T18:53:50.996Z,61.99
2023-03-06T18:56:21.907Z,62.72
2023-03-06T18:58:49.928Z,62.20
2023-03-06T19:01:18.498Z,62.19
2023-03-06T19:03:46.757Z,64.19
2023-03-06T19:06:16.126Z,64.44
2023-03-06T19:08:44.743Z,64.38
2023-03-06T19:11:14.451Z,64.63
2023-03-06T19:13:43.981Z,64.91
2023-03-06T19:16:19.811Z,64.98
2023-03-06T19:18:47.792Z,64.03
2023-03-06T19:21:19.546Z,63.64
2023-03-06T19:23:48.224Z,63.52
2023-03-06T19:26:16.199Z,63.69
2023-03-06T19:28:45.117Z,64.16
2023-03-06T19:31:19.356Z,64.41
2023-03-06T19:33:49.397Z,63.82
2023-03-06T19:36:18.104Z,63.81
2023-03-06T19:38:46.548Z,63.30
2023-03-06T19:41:14.492Z,63.50
2023-03-06T19:43:43.661Z,63.48
2023-03-06T19:46:15.223Z,63.56
2023-03-06T19:48:43.744Z,64.06
2023-03-06T19:51:11.973Z,63.48
2023-03-06T19:53:40.014Z,63.19
2023-03-06T19:56:09.691Z,62.55
2023-03-06T19:58:37.987Z,61.58
2023-03-06T20:01:11.578Z,61.41
2023-03-06T20:03:40.752Z,60.79
2023-03-06T20:06:13.207Z,60.49
2023-03-06T20:08:42.371Z,60.55
2023-03-06T20:11:21.435Z,60.46
2023-03-06T20:13:49.384Z,60.65
2023-03-06T20:16:18.189Z,60.86
2023-03-06T20:18:46.261Z,61.55
2023-03-06T20:21:14.946Z,61.40
2023-03-06T20:23:43.286Z,61.10
2023-03-06T20:26:12.629Z,60.69
2023-03-06T20:28:41.938Z,60.37
2023-03-06T20:31:14.722Z,60.03
2023-03-06T20:33:43.342Z,59.52
2023-03-06T20:36:12.586Z,58.99
2023-03-06T20:38:41.225Z,58.79
2023-03-06T20:41:20.966Z,58.38
2023-03-06T20:43:49.104Z,56.97
2023-03-06T20:46:18.337Z,56.89
2023-03-06T20:48:47.780Z,56.77
2023-03-06T20:51:20.575Z,56.61
2023-03-06T20:53:50.191Z,56.52
2023-03-06T20:56:19.316Z,56.38
2023-03-06T20:58:47.426Z,56.23
2023-03-06T21:01:29.438Z,56.00
2023-03-06T21:03:58.364Z,55.75
2023-03-06T21:06:27.897Z,55.67
2023-03-06T21:08:56.152Z,55.47
2023-03-06T21:11:24.579Z,55.34
2023-03-06T21:13:53.213Z,55.30
2023-03-06T21:16:22.292Z,55.99
2023-03-06T21:18:50.827Z,57.09
2023-03-06T21:21:21.009Z,58.40
2023-03-06T21:23:49.312Z,58.46
2023-03-06T21:26:18.961Z,58.17
2023-03-06T21:28:47.168Z,57.95
2023-03-06T21:31:16.270Z,57.50
2023-03-06T21:33:44.925Z,57.06
2023-03-06T21:36:13.108Z,56.33
2023-03-06T21:38:41.172Z,52.42
2023-03-06T21:41:10.555Z,51.05
2023-03-06T21:43:38.912Z,50.66
2023-03-06T21:46:06.922Z,50.25
2023-03-06T21:48:35.748Z,50.06
2023-03-06T21:51:05.078Z,50.05
2023-03-06T21:53:33.088Z,49.80
2023-03-06T21:56:01.652Z,49.69
2023-03-06T21:58:30.119Z,49.76
2023-03-06T22:00:58.239Z,49.18
2023-03-06T22:03:27.020Z,48.96
2023-03-06T22:05:54.901Z,48.51
2023-03-06T22:08:22.918Z,48.30
2023-03-06T22:10:51.593Z,48.77
2023-03-06T22:13:19.616Z,49.48
2023-03-06T22:15:52.182Z,49.63
2023-03-06T22:18:21.343Z,49.66
2023-03-06T22:20:49.225Z,49.68
2023-03-06T22:23:17.611Z,49.40
2023-03-06T22:25:45.506Z,49.28
2023-03-06T22:28:13.525Z,49.61
2023-03-06T22:30:42.285Z,49.59
2023-03-06T22:33:10.632Z,49.64
2023-03-06T22:35:38.517Z,49.52
2023-03-06T22:38:06.639Z,49.14
2023-03-06T22:40:34.608Z,48.88
2023-03-06T22:43:02.558Z,48.87
2023-03-06T22:45:34.680Z,49.13
2023-03-06T22:48:10.795Z,49.40
2023-03-06T22:50:39.371Z,49.73
2023-03-06T22:53:07.281Z,50.38
2023-03-06T22:55:35.274Z,50.62
2023-03-06T22:58:03.522Z,50.84
2023-03-06T23:00:31.461Z,51.01
2023-03-06T23:02:59.537Z,50.88
2023-03-06T23:05:29.469Z,50.52
2023-03-06T23:07:57.541Z,50.79
2023-03-06T23:10:25.678Z,50.96
2023-03-06T23:12:54.133Z,51.07
2023-03-06T23:15:22.482Z,51.23
2023-03-06T23:17:51.554Z,51.04
2023-03-06T23:20:19.896Z,50.97
2023-03-06T23:22:47.883Z,51.05
2023-03-06T23:25:15.998Z,51.12
2023-03-06T23:27:44.377Z,51.24
2023-03-06T23:30:13.437Z,51.20
2023-03-06T23:32:41.537Z,51.03
2023-03-06T23:35:10.054Z,50.90
2023-03-06T23:37:38.059Z,50.91
2023-03-06T23:40:06.262Z,50.90
2023-03-06T23:42:34.424Z,50.97
2023-03-06T23:45:02.478Z,50.97
2023-03-06T23:47:31.960Z,50.83
2023-03-06T23:50:00.390Z,50.52
2023-03-06T23:52:28.355Z,50.41
2023-03-06T23:54:56.318Z,50.50
2023-03-06T23:57:25.655Z,50.66
2023-03-06T23:59:53.697Z,50.71
